Portada
METAR-TAF:

METAR-TAF

Aeroports :

Angeles, Filipines

latitud: 15-11N, longitud: 120-33E, altitud: 148 m

Observació

L'informe es va fer fa 1 hora i 12 minuts, a les 16:00 UTC
Vent 4 kt del Oest/Sud-Oest
Temperatura 25°C
Humitat 83%
Pressió 1011 hPa
Visibilitat: 9000 m
Escasses núvols a una alçada de 2000 ft
Cel ennuvolat a una alçada de 30000 ft

METAR: RPLC 211600Z 24004KT 9000 FEW020 BKN300 25/22 Q1011 NOSIG RMK A2985

Hora: 01:12 (17:12 UTC)

Pronòstic

L'informe es va fer fa 6 hores i 12 minuts, a les 11:00 UTC
Pronòstic vàlid del 21 a les 12 UTC al 22 a les 18 UTC
Vent 8 kt del Sud
Visibilitat: 8000 m
Núvols disperses a una alçada de 2000 ft
Cel ennuvolat a una alçada de 10000 ft
Temporalment
l' 21 a les 12 UTC al 21 a les 18 UTC
Vent 7 kt del Sud-Oest
Visibilitat: 6000 m
Núvols disperses a una alçada de 2000 ft
Cel cobert a una alçada de 10000 ft
pluja

TAF: RPLC 211100Z 2112/2218 18008KT 8000 SCT020 BKN100 TX31/2206Z TN24/2122Z TEMPO 2112/2118 22007KT 6000 -RA SCT020 OVC100

Observacions i pronòstics meteorològics de més de 4000 aeroports (METAR i TAF).

Les estacions disponibles són els punts grocs i vermells al mapa.

Posi el ratolí al punt desitjat per veure el nom de l'estació.

Feu clic per veure les observacions i els pronòstics meteorològics.

Per canviar el mapa: feu clic els botons verds amb una creu de color negre per apropar; al botó verd amb un guió per allunyar la imatge; o en les fletxes verdes per a mapes adjacents.


METAR-TAF: